sensor_id;sensor_type;location;lat;lon;timestamp;P1;durP1;ratioP1;P2;durP2;ratioP2
12038;SDS011;6080;48.818;9.526;2022-07-11T00:02:11;20.27;;;19.17;;
12038;SDS011;6080;48.818;9.526;2022-07-11T00:04:38;20.10;;;18.83;;
12038;SDS011;6080;48.818;9.526;2022-07-11T00:07:05;16.77;;;15.67;;
12038;SDS011;6080;48.818;9.526;2022-07-11T00:09:32;19.00;;;18.10;;
12038;SDS011;6080;48.818;9.526;2022-07-11T00:11:59;15.30;;;14.30;;
12038;SDS011;6080;48.818;9.526;2022-07-11T00:14:26;15.57;;;14.73;;
12038;SDS011;6080;48.818;9.526;2022-07-11T00:16:53;20.17;;;18.80;;
12038;SDS011;6080;48.818;9.526;2022-07-11T00:19:19;14.77;;;13.90;;
12038;SDS011;6080;48.818;9.526;2022-07-11T00:21:46;20.00;;;19.00;;
12038;SDS011;6080;48.818;9.526;2022-07-11T00:24:12;21.60;;;20.50;;
12038;SDS011;6080;48.818;9.526;2022-07-11T00:26:38;34.77;;;33.00;;
12038;SDS011;6080;48.818;9.526;2022-07-11T00:29:04;59.00;;;56.03;;
12038;SDS011;6080;48.818;9.526;2022-07-11T00:31:31;104.07;;;98.87;;
12038;SDS011;6080;48.818;9.526;2022-07-11T00:33:57;153.33;;;145.07;;
12038;SDS011;6080;48.818;9.526;2022-07-11T00:36:23;191.53;;;181.67;;
12038;SDS011;6080;48.818;9.526;2022-07-11T00:38:49;192.07;;;182.30;;
12038;SDS011;6080;48.818;9.526;2022-07-11T00:41:15;181.97;;;172.70;;
12038;SDS011;6080;48.818;9.526;2022-07-11T00:43:42;139.33;;;132.33;;
12038;SDS011;6080;48.818;9.526;2022-07-11T00:46:09;116.33;;;110.63;;
12038;SDS011;6080;48.818;9.526;2022-07-11T00:48:36;55.57;;;52.70;;
12038;SDS011;6080;48.818;9.526;2022-07-11T00:51:03;39.70;;;37.47;;
12038;SDS011;6080;48.818;9.526;2022-07-11T00:53:30;24.77;;;23.57;;
12038;SDS011;6080;48.818;9.526;2022-07-11T00:55:57;19.47;;;18.13;;
12038;SDS011;6080;48.818;9.526;2022-07-11T00:58:24;11.47;;;10.87;;
12038;SDS011;6080;48.818;9.526;2022-07-11T01:00:51;10.40;;;9.63;;
12038;SDS011;6080;48.818;9.526;2022-07-11T01:03:17;11.67;;;11.07;;
12038;SDS011;6080;48.818;9.526;2022-07-11T01:05:43;11.67;;;10.83;;
12038;SDS011;6080;48.818;9.526;2022-07-11T01:08:08;7.57;;;7.13;;
12038;SDS011;6080;48.818;9.526;2022-07-11T01:10:35;8.50;;;7.83;;
12038;SDS011;6080;48.818;9.526;2022-07-11T01:13:01;6.67;;;6.23;;
12038;SDS011;6080;48.818;9.526;2022-07-11T01:15:27;8.33;;;7.63;;
12038;SDS011;6080;48.818;9.526;2022-07-11T01:17:53;7.30;;;6.90;;
12038;SDS011;6080;48.818;9.526;2022-07-11T01:20:19;7.17;;;6.77;;
12038;SDS011;6080;48.818;9.526;2022-07-11T01:22:51;6.90;;;6.30;;
12038;SDS011;6080;48.818;9.526;2022-07-11T01:25:18;6.70;;;6.30;;
12038;SDS011;6080;48.818;9.526;2022-07-11T01:28:01;6.97;;;6.40;;
12038;SDS011;6080;48.818;9.526;2022-07-11T01:30:29;7.53;;;7.13;;
12038;SDS011;6080;48.818;9.526;2022-07-11T01:32:57;11.77;;;10.73;;
12038;SDS011;6080;48.818;9.526;2022-07-11T01:35:25;29.03;;;27.63;;
12038;SDS011;6080;48.818;9.526;2022-07-11T01:37:52;18.17;;;17.10;;
12038;SDS011;6080;48.818;9.526;2022-07-11T01:40:17;20.73;;;19.70;;
12038;SDS011;6080;48.818;9.526;2022-07-11T01:42:44;17.23;;;16.30;;
12038;SDS011;6080;48.818;9.526;2022-07-11T01:45:10;15.83;;;14.73;;
12038;SDS011;6080;48.818;9.526;2022-07-11T01:47:37;9.60;;;8.90;;
12038;SDS011;6080;48.818;9.526;2022-07-11T01:50:03;6.40;;;5.90;;
12038;SDS011;6080;48.818;9.526;2022-07-11T01:52:30;12.30;;;11.63;;
12038;SDS011;6080;48.818;9.526;2022-07-11T01:54:56;18.60;;;17.40;;
12038;SDS011;6080;48.818;9.526;2022-07-11T01:57:22;28.73;;;27.03;;
12038;SDS011;6080;48.818;9.526;2022-07-11T01:59:48;46.60;;;44.17;;
12038;SDS011;6080;48.818;9.526;2022-07-11T02:02:14;89.27;;;84.73;;
12038;SDS011;6080;48.818;9.526;2022-07-11T02:07:06;147.67;;;139.93;;
12038;SDS011;6080;48.818;9.526;2022-07-11T02:09:33;165.03;;;156.53;;
12038;SDS011;6080;48.818;9.526;2022-07-11T02:11:59;155.90;;;147.87;;
12038;SDS011;6080;48.818;9.526;2022-07-11T02:14:25;116.97;;;111.07;;
12038;SDS011;6080;48.818;9.526;2022-07-11T02:16:51;131.30;;;124.53;;
12038;SDS011;6080;48.818;9.526;2022-07-11T02:19:16;161.63;;;153.43;;
12038;SDS011;6080;48.818;9.526;2022-07-11T02:21:42;160.40;;;152.13;;
12038;SDS011;6080;48.818;9.526;2022-07-11T02:24:08;160.20;;;152.07;;
12038;SDS011;6080;48.818;9.526;2022-07-11T02:26:34;173.43;;;164.43;;
12038;SDS011;6080;48.818;9.526;2022-07-11T02:29:00;146.57;;;139.10;;
12038;SDS011;6080;48.818;9.526;2022-07-11T02:31:26;133.70;;;126.10;;
12038;SDS011;6080;48.818;9.526;2022-07-11T02:33:53;129.00;;;122.20;;
12038;SDS011;6080;48.818;9.526;2022-07-11T02:36:19;95.53;;;90.77;;
12038;SDS011;6080;48.818;9.526;2022-07-11T02:38:45;34.87;;;33.03;;
12038;SDS011;6080;48.818;9.526;2022-07-11T02:41:11;29.33;;;27.87;;
12038;SDS011;6080;48.818;9.526;2022-07-11T02:43:37;21.10;;;19.90;;
12038;SDS011;6080;48.818;9.526;2022-07-11T02:46:04;13.80;;;13.13;;
12038;SDS011;6080;48.818;9.526;2022-07-11T02:48:30;10.63;;;9.77;;
12038;SDS011;6080;48.818;9.526;2022-07-11T02:50:57;12.00;;;11.23;;
12038;SDS011;6080;48.818;9.526;2022-07-11T02:53:22;6.87;;;6.47;;
12038;SDS011;6080;48.818;9.526;2022-07-11T02:55:48;5.20;;;4.80;;
12038;SDS011;6080;48.818;9.526;2022-07-11T02:58:15;5.87;;;5.40;;
12038;SDS011;6080;48.818;9.526;2022-07-11T03:00:40;5.83;;;5.40;;
12038;SDS011;6080;48.818;9.526;2022-07-11T03:03:06;6.53;;;5.43;;
12038;SDS011;6080;48.818;9.526;2022-07-11T03:05:32;7.20;;;5.83;;
12038;SDS011;6080;48.818;9.526;2022-07-11T03:07:59;5.17;;;4.77;;
12038;SDS011;6080;48.818;9.526;2022-07-11T03:10:25;11.20;;;10.30;;
12038;SDS011;6080;48.818;9.526;2022-07-11T03:12:51;6.33;;;5.93;;
12038;SDS011;6080;48.818;9.526;2022-07-11T03:15:17;7.03;;;6.63;;
12038;SDS011;6080;48.818;9.526;2022-07-11T03:17:43;11.40;;;10.80;;
12038;SDS011;6080;48.818;9.526;2022-07-11T03:20:09;13.00;;;12.30;;
12038;SDS011;6080;48.818;9.526;2022-07-11T03:22:36;10.07;;;9.00;;
12038;SDS011;6080;48.818;9.526;2022-07-11T03:25:02;10.43;;;9.63;;
12038;SDS011;6080;48.818;9.526;2022-07-11T03:27:31;11.53;;;10.93;;
12038;SDS011;6080;48.818;9.526;2022-07-11T03:29:57;12.80;;;12.00;;
12038;SDS011;6080;48.818;9.526;2022-07-11T03:32:23;9.23;;;8.73;;
12038;SDS011;6080;48.818;9.526;2022-07-11T03:34:49;8.40;;;7.80;;
12038;SDS011;6080;48.818;9.526;2022-07-11T03:37:33;6.67;;;5.70;;
12038;SDS011;6080;48.818;9.526;2022-07-11T03:39:59;8.83;;;8.30;;
12038;SDS011;6080;48.818;9.526;2022-07-11T03:42:25;11.03;;;10.13;;
12038;SDS011;6080;48.818;9.526;2022-07-11T03:44:51;11.63;;;11.03;;
12038;SDS011;6080;48.818;9.526;2022-07-11T03:47:18;11.40;;;10.80;;
12038;SDS011;6080;48.818;9.526;2022-07-11T03:49:45;12.33;;;11.67;;
12038;SDS011;6080;48.818;9.526;2022-07-11T03:52:11;14.70;;;13.80;;
12038;SDS011;6080;48.818;9.526;2022-07-11T03:54:38;14.00;;;13.10;;
12038;SDS011;6080;48.818;9.526;2022-07-11T03:57:05;13.33;;;12.63;;
12038;SDS011;6080;48.818;9.526;2022-07-11T03:59:31;12.60;;;11.83;;
12038;SDS011;6080;48.818;9.526;2022-07-11T04:01:56;7.83;;;7.43;;
12038;SDS011;6080;48.818;9.526;2022-07-11T04:04:22;7.40;;;6.50;;
12038;SDS011;6080;48.818;9.526;2022-07-11T04:06:48;38.20;;;36.23;;
12038;SDS011;6080;48.818;9.526;2022-07-11T04:09:14;43.43;;;40.87;;
12038;SDS011;6080;48.818;9.526;2022-07-11T04:11:40;33.60;;;31.43;;
12038;SDS011;6080;48.818;9.526;2022-07-11T04:14:06;25.33;;;23.93;;
12038;SDS011;6080;48.818;9.526;2022-07-11T04:16:32;32.80;;;31.17;;
12038;SDS011;6080;48.818;9.526;2022-07-11T04:18:57;34.30;;;32.47;;
12038;SDS011;6080;48.818;9.526;2022-07-11T04:21:23;70.97;;;67.47;;
12038;SDS011;6080;48.818;9.526;2022-07-11T04:23:49;66.07;;;62.67;;
12038;SDS011;6080;48.818;9.526;2022-07-11T04:26:15;77.27;;;73.33;;
12038;SDS011;6080;48.818;9.526;2022-07-11T04:28:41;96.47;;;91.47;;
12038;SDS011;6080;48.818;9.526;2022-07-11T04:31:07;91.20;;;86.53;;
12038;SDS011;6080;48.818;9.526;2022-07-11T04:33:33;109.60;;;104.03;;
12038;SDS011;6080;48.818;9.526;2022-07-11T04:35:59;104.57;;;99.50;;
12038;SDS011;6080;48.818;9.526;2022-07-11T04:38:25;136.93;;;130.03;;
12038;SDS011;6080;48.818;9.526;2022-07-11T04:40:51;131.87;;;125.10;;
12038;SDS011;6080;48.818;9.526;2022-07-11T04:43:17;140.27;;;133.20;;
12038;SDS011;6080;48.818;9.526;2022-07-11T04:45:43;162.70;;;153.87;;
12038;SDS011;6080;48.818;9.526;2022-07-11T04:48:09;172.07;;;162.93;;
12038;SDS011;6080;48.818;9.526;2022-07-11T04:50:35;175.27;;;166.10;;
12038;SDS011;6080;48.818;9.526;2022-07-11T04:53:01;136.20;;;129.07;;
12038;SDS011;6080;48.818;9.526;2022-07-11T04:55:28;77.00;;;73.17;;
12038;SDS011;6080;48.818;9.526;2022-07-11T04:57:55;37.53;;;35.57;;
12038;SDS011;6080;48.818;9.526;2022-07-11T05:00:20;18.37;;;17.27;;
12038;SDS011;6080;48.818;9.526;2022-07-11T05:02:46;7.40;;;6.80;;
12038;SDS011;6080;48.818;9.526;2022-07-11T05:05:12;5.10;;;4.60;;
12038;SDS011;6080;48.818;9.526;2022-07-11T05:07:38;6.00;;;5.43;;
12038;SDS011;6080;48.818;9.526;2022-07-11T05:10:04;5.23;;;4.57;;
12038;SDS011;6080;48.818;9.526;2022-07-11T05:12:30;4.77;;;4.47;;
12038;SDS011;6080;48.818;9.526;2022-07-11T05:14:56;7.13;;;6.63;;
12038;SDS011;6080;48.818;9.526;2022-07-11T05:17:24;11.20;;;10.60;;
12038;SDS011;6080;48.818;9.526;2022-07-11T05:19:50;14.33;;;13.60;;
12038;SDS011;6080;48.818;9.526;2022-07-11T05:22:16;14.27;;;13.33;;
12038;SDS011;6080;48.818;9.526;2022-07-11T05:24:42;10.13;;;8.60;;
12038;SDS011;6080;48.818;9.526;2022-07-11T05:27:08;13.67;;;12.87;;
12038;SDS011;6080;48.818;9.526;2022-07-11T05:29:34;14.73;;;13.53;;
12038;SDS011;6080;48.818;9.526;2022-07-11T05:32:00;16.23;;;15.27;;
12038;SDS011;6080;48.818;9.526;2022-07-11T05:34:26;15.83;;;14.77;;
12038;SDS011;6080;48.818;9.526;2022-07-11T05:36:52;21.07;;;19.97;;
12038;SDS011;6080;48.818;9.526;2022-07-11T05:39:18;24.97;;;23.57;;
12038;SDS011;6080;48.818;9.526;2022-07-11T05:41:44;34.50;;;32.80;;
12038;SDS011;6080;48.818;9.526;2022-07-11T05:44:10;35.53;;;33.70;;
12038;SDS011;6080;48.818;9.526;2022-07-11T05:46:36;26.53;;;25.23;;
12038;SDS011;6080;48.818;9.526;2022-07-11T05:49:05;21.40;;;20.20;;
12038;SDS011;6080;48.818;9.526;2022-07-11T05:51:32;16.70;;;15.70;;
12038;SDS011;6080;48.818;9.526;2022-07-11T05:53:58;12.10;;;11.40;;
12038;SDS011;6080;48.818;9.526;2022-07-11T05:56:24;9.77;;;8.93;;
12038;SDS011;6080;48.818;9.526;2022-07-11T05:58:51;10.03;;;9.03;;
12038;SDS011;6080;48.818;9.526;2022-07-11T06:01:17;9.07;;;7.97;;
12038;SDS011;6080;48.818;9.526;2022-07-11T06:03:43;6.37;;;6.03;;
12038;SDS011;6080;48.818;9.526;2022-07-11T06:06:09;6.23;;;5.80;;
12038;SDS011;6080;48.818;9.526;2022-07-11T06:08:36;6.27;;;4.80;;
12038;SDS011;6080;48.818;9.526;2022-07-11T06:11:09;5.43;;;4.93;;
12038;SDS011;6080;48.818;9.526;2022-07-11T06:13:36;4.57;;;4.10;;
12038;SDS011;6080;48.818;9.526;2022-07-11T06:16:04;5.20;;;4.90;;
12038;SDS011;6080;48.818;9.526;2022-07-11T06:18:30;6.40;;;5.77;;
12038;SDS011;6080;48.818;9.526;2022-07-11T06:20:56;6.90;;;6.37;;
12038;SDS011;6080;48.818;9.526;2022-07-11T06:23:22;7.10;;;6.50;;
12038;SDS011;6080;48.818;9.526;2022-07-11T06:25:48;7.43;;;6.17;;
12038;SDS011;6080;48.818;9.526;2022-07-11T06:28:14;7.33;;;6.67;;
12038;SDS011;6080;48.818;9.526;2022-07-11T06:30:39;6.90;;;6.37;;
12038;SDS011;6080;48.818;9.526;2022-07-11T06:33:05;7.07;;;6.43;;
12038;SDS011;6080;48.818;9.526;2022-07-11T06:35:31;7.13;;;6.63;;
12038;SDS011;6080;48.818;9.526;2022-07-11T06:37:57;7.57;;;6.87;;
12038;SDS011;6080;48.818;9.526;2022-07-11T06:40:23;8.73;;;8.13;;
12038;SDS011;6080;48.818;9.526;2022-07-11T06:42:49;7.37;;;6.87;;
12038;SDS011;6080;48.818;9.526;2022-07-11T06:45:15;10.33;;;9.83;;
12038;SDS011;6080;48.818;9.526;2022-07-11T06:47:43;8.70;;;6.20;;
12038;SDS011;6080;48.818;9.526;2022-07-11T06:50:09;6.30;;;5.70;;
12038;SDS011;6080;48.818;9.526;2022-07-11T06:52:35;7.10;;;6.30;;
12038;SDS011;6080;48.818;9.526;2022-07-11T06:55:01;7.40;;;6.80;;
12038;SDS011;6080;48.818;9.526;2022-07-11T06:57:28;11.93;;;11.30;;
12038;SDS011;6080;48.818;9.526;2022-07-11T06:59:54;14.25;;;13.18;;
12038;SDS011;6080;48.818;9.526;2022-07-11T07:02:20;11.98;;;11.10;;
12038;SDS011;6080;48.818;9.526;2022-07-11T07:04:48;12.48;;;11.68;;
12038;SDS011;6080;48.818;9.526;2022-07-11T07:07:14;13.32;;;12.63;;
12038;SDS011;6080;48.818;9.526;2022-07-11T07:09:40;16.77;;;15.43;;
12038;SDS011;6080;48.818;9.526;2022-07-11T07:12:06;16.13;;;15.27;;
12038;SDS011;6080;48.818;9.526;2022-07-11T07:14:32;23.80;;;22.20;;
12038;SDS011;6080;48.818;9.526;2022-07-11T07:16:58;22.27;;;21.17;;
12038;SDS011;6080;48.818;9.526;2022-07-11T07:19:23;15.95;;;15.00;;
12038;SDS011;6080;48.818;9.526;2022-07-11T07:21:49;18.38;;;17.35;;
12038;SDS011;6080;48.818;9.526;2022-07-11T07:24:15;16.15;;;15.13;;
12038;SDS011;6080;48.818;9.526;2022-07-11T07:26:41;12.48;;;11.80;;
12038;SDS011;6080;48.818;9.526;2022-07-11T07:29:07;12.00;;;11.40;;
12038;SDS011;6080;48.818;9.526;2022-07-11T07:31:33;5.28;;;5.05;;
12038;SDS011;6080;48.818;9.526;2022-07-11T07:33:59;6.25;;;5.95;;
12038;SDS011;6080;48.818;9.526;2022-07-11T07:36:25;5.63;;;5.32;;
12038;SDS011;6080;48.818;9.526;2022-07-11T07:38:51;7.95;;;7.45;;
12038;SDS011;6080;48.818;9.526;2022-07-11T07:41:17;17.35;;;16.45;;
12038;SDS011;6080;48.818;9.526;2022-07-11T07:43:43;17.83;;;16.83;;
12038;SDS011;6080;48.818;9.526;2022-07-11T07:46:10;18.20;;;17.35;;
12038;SDS011;6080;48.818;9.526;2022-07-11T07:48:37;16.13;;;15.30;;
12038;SDS011;6080;48.818;9.526;2022-07-11T07:51:03;13.85;;;12.85;;
12038;SDS011;6080;48.818;9.526;2022-07-11T07:53:29;14.30;;;13.48;;
12038;SDS011;6080;48.818;9.526;2022-07-11T07:55:56;14.48;;;13.77;;
12038;SDS011;6080;48.818;9.526;2022-07-11T07:58:21;12.88;;;12.27;;
12038;SDS011;6080;48.818;9.526;2022-07-11T08:00:47;12.35;;;11.57;;
12038;SDS011;6080;48.818;9.526;2022-07-11T08:03:32;10.85;;;10.25;;
12038;SDS011;6080;48.818;9.526;2022-07-11T08:05:58;12.02;;;11.43;;
12038;SDS011;6080;48.818;9.526;2022-07-11T08:08:24;11.52;;;10.98;;
12038;SDS011;6080;48.818;9.526;2022-07-11T08:10:49;14.27;;;13.55;;
12038;SDS011;6080;48.818;9.526;2022-07-11T08:13:17;14.32;;;13.63;;
12038;SDS011;6080;48.818;9.526;2022-07-11T08:15:45;8.93;;;8.43;;
12038;SDS011;6080;48.818;9.526;2022-07-11T08:18:11;9.55;;;9.10;;
12038;SDS011;6080;48.818;9.526;2022-07-11T08:20:38;7.55;;;7.15;;
12038;SDS011;6080;48.818;9.526;2022-07-11T08:23:04;4.05;;;3.85;;
12038;SDS011;6080;48.818;9.526;2022-07-11T08:25:30;3.33;;;3.13;;
12038;SDS011;6080;48.818;9.526;2022-07-11T08:27:56;3.88;;;3.60;;
12038;SDS011;6080;48.818;9.526;2022-07-11T08:30:22;4.30;;;4.10;;
12038;SDS011;6080;48.818;9.526;2022-07-11T08:32:49;4.35;;;4.15;;
12038;SDS011;6080;48.818;9.526;2022-07-11T08:35:14;6.32;;;5.93;;
12038;SDS011;6080;48.818;9.526;2022-07-11T08:37:43;8.77;;;8.20;;
12038;SDS011;6080;48.818;9.526;2022-07-11T08:40:09;8.10;;;7.70;;
12038;SDS011;6080;48.818;9.526;2022-07-11T08:42:38;6.20;;;5.80;;
12038;SDS011;6080;48.818;9.526;2022-07-11T08:45:07;8.27;;;7.68;;
12038;SDS011;6080;48.818;9.526;2022-07-11T08:47:39;4.40;;;4.22;;
12038;SDS011;6080;48.818;9.526;2022-07-11T08:50:09;3.38;;;3.28;;
12038;SDS011;6080;48.818;9.526;2022-07-11T08:52:36;3.60;;;3.40;;
12038;SDS011;6080;48.818;9.526;2022-07-11T08:55:03;6.68;;;6.38;;
12038;SDS011;6080;48.818;9.526;2022-07-11T08:57:36;7.10;;;6.80;;
12038;SDS011;6080;48.818;9.526;2022-07-11T09:00:03;5.40;;;4.90;;
12038;SDS011;6080;48.818;9.526;2022-07-11T09:02:31;3.42;;;3.22;;
12038;SDS011;6080;48.818;9.526;2022-07-11T09:04:58;3.00;;;2.90;;
12038;SDS011;6080;48.818;9.526;2022-07-11T09:07:27;3.53;;;3.42;;
12038;SDS011;6080;48.818;9.526;2022-07-11T09:09:54;4.00;;;3.78;;
12038;SDS011;6080;48.818;9.526;2022-07-11T09:12:20;4.78;;;4.43;;
12038;SDS011;6080;48.818;9.526;2022-07-11T09:14:47;7.20;;;6.85;;
12038;SDS011;6080;48.818;9.526;2022-07-11T09:17:14;3.00;;;2.80;;
12038;SDS011;6080;48.818;9.526;2022-07-11T09:19:40;6.30;;;6.10;;
12038;SDS011;6080;48.818;9.526;2022-07-11T09:22:11;4.75;;;4.55;;
12038;SDS011;6080;48.818;9.526;2022-07-11T09:25:02;6.97;;;6.68;;
12038;SDS011;6080;48.818;9.526;2022-07-11T09:27:48;7.20;;;6.90;;
12038;SDS011;6080;48.818;9.526;2022-07-11T09:30:15;4.07;;;3.97;;
12038;SDS011;6080;48.818;9.526;2022-07-11T09:32:59;3.40;;;3.13;;
12038;SDS011;6080;48.818;9.526;2022-07-11T09:35:27;3.67;;;3.45;;
12038;SDS011;6080;48.818;9.526;2022-07-11T09:37:53;3.35;;;3.25;;
12038;SDS011;6080;48.818;9.526;2022-07-11T09:40:20;3.42;;;3.30;;
12038;SDS011;6080;48.818;9.526;2022-07-11T09:42:48;4.03;;;3.78;;
12038;SDS011;6080;48.818;9.526;2022-07-11T09:45:20;3.95;;;3.65;;
12038;SDS011;6080;48.818;9.526;2022-07-11T09:47:49;3.85;;;3.72;;
12038;SDS011;6080;48.818;9.526;2022-07-11T09:50:19;4.25;;;4.05;;
12038;SDS011;6080;48.818;9.526;2022-07-11T09:55:39;3.92;;;3.70;;
12038;SDS011;6080;48.818;9.526;2022-07-11T09:58:07;3.70;;;3.50;;
12038;SDS011;6080;48.818;9.526;2022-07-11T10:00:35;3.10;;;2.83;;
12038;SDS011;6080;48.818;9.526;2022-07-11T10:03:03;3.58;;;3.42;;
12038;SDS011;6080;48.818;9.526;2022-07-11T10:05:30;3.63;;;3.53;;
12038;SDS011;6080;48.818;9.526;2022-07-11T10:07:56;3.30;;;3.20;;
12038;SDS011;6080;48.818;9.526;2022-07-11T10:10:23;4.13;;;4.03;;
12038;SDS011;6080;48.818;9.526;2022-07-11T10:12:53;3.45;;;3.25;;
12038;SDS011;6080;48.818;9.526;2022-07-11T10:15:21;3.85;;;3.65;;
12038;SDS011;6080;48.818;9.526;2022-07-11T10:17:54;3.00;;;2.90;;
12038;SDS011;6080;48.818;9.526;2022-07-11T10:29:16;4.30;;;4.20;;
12038;SDS011;6080;48.818;9.526;2022-07-11T10:32:04;3.58;;;3.38;;
12038;SDS011;6080;48.818;9.526;2022-07-11T10:34:30;4.57;;;4.38;;
12038;SDS011;6080;48.818;9.526;2022-07-11T10:36:59;4.47;;;4.22;;
12038;SDS011;6080;48.818;9.526;2022-07-11T10:39:27;3.10;;;3.00;;
12038;SDS011;6080;48.818;9.526;2022-07-11T10:41:54;4.03;;;3.83;;
12038;SDS011;6080;48.818;9.526;2022-07-11T10:44:24;4.15;;;3.95;;
12038;SDS011;6080;48.818;9.526;2022-07-11T10:46:51;3.38;;;3.20;;
12038;SDS011;6080;48.818;9.526;2022-07-11T10:49:20;4.30;;;4.10;;
12038;SDS011;6080;48.818;9.526;2022-07-11T10:52:06;4.55;;;4.32;;
12038;SDS011;6080;48.818;9.526;2022-07-11T10:59:54;5.30;;;5.00;;
12038;SDS011;6080;48.818;9.526;2022-07-11T11:02:20;4.50;;;4.32;;
12038;SDS011;6080;48.818;9.526;2022-07-11T11:05:05;5.18;;;4.97;;
12038;SDS011;6080;48.818;9.526;2022-07-11T11:07:32;5.43;;;5.07;;
12038;SDS011;6080;48.818;9.526;2022-07-11T11:09:59;5.20;;;4.80;;
12038;SDS011;6080;48.818;9.526;2022-07-11T11:23:35;4.20;;;4.03;;
12038;SDS011;6080;48.818;9.526;2022-07-11T11:28:54;5.65;;;5.45;;
12038;SDS011;6080;48.818;9.526;2022-07-11T11:31:27;5.35;;;5.15;;
12038;SDS011;6080;48.818;9.526;2022-07-11T11:33:55;5.78;;;5.47;;
12038;SDS011;6080;48.818;9.526;2022-07-11T11:36:25;5.28;;;5.00;;
12038;SDS011;6080;48.818;9.526;2022-07-11T11:38:52;5.53;;;5.07;;
12038;SDS011;6080;48.818;9.526;2022-07-11T11:41:37;4.18;;;3.97;;
12038;SDS011;6080;48.818;9.526;2022-07-11T11:44:03;4.88;;;4.47;;
12038;SDS011;6080;48.818;9.526;2022-07-11T11:46:29;4.38;;;4.07;;
12038;SDS011;6080;48.818;9.526;2022-07-11T11:49:03;3.78;;;3.60;;
12038;SDS011;6080;48.818;9.526;2022-07-11T11:51:30;3.58;;;3.45;;
12038;SDS011;6080;48.818;9.526;2022-07-11T11:53:58;3.92;;;3.72;;
12038;SDS011;6080;48.818;9.526;2022-07-11T11:59:00;5.43;;;5.18;;
12038;SDS011;6080;48.818;9.526;2022-07-11T12:01:34;5.80;;;5.38;;
12038;SDS011;6080;48.818;9.526;2022-07-11T12:04:02;5.63;;;5.43;;
12038;SDS011;6080;48.818;9.526;2022-07-11T12:06:45;4.50;;;4.22;;
12038;SDS011;6080;48.818;9.526;2022-07-11T12:11:42;3.70;;;3.40;;
12038;SDS011;6080;48.818;9.526;2022-07-11T12:14:11;4.00;;;3.80;;
12038;SDS011;6080;48.818;9.526;2022-07-11T12:16:40;4.13;;;3.92;;
12038;SDS011;6080;48.818;9.526;2022-07-11T12:19:16;4.15;;;3.85;;
12038;SDS011;6080;48.818;9.526;2022-07-11T12:21:44;4.32;;;4.03;;
12038;SDS011;6080;48.818;9.526;2022-07-11T12:24:14;4.15;;;3.72;;
12038;SDS011;6080;48.818;9.526;2022-07-11T12:26:42;6.93;;;6.63;;
12038;SDS011;6080;48.818;9.526;2022-07-11T12:29:10;10.63;;;10.20;;
12038;SDS011;6080;48.818;9.526;2022-07-11T12:34:07;9.73;;;9.25;;
12038;SDS011;6080;48.818;9.526;2022-07-11T12:36:34;9.45;;;9.05;;
12038;SDS011;6080;48.818;9.526;2022-07-11T12:38:59;5.07;;;4.88;;
12038;SDS011;6080;48.818;9.526;2022-07-11T12:41:25;4.22;;;3.92;;
12038;SDS011;6080;48.818;9.526;2022-07-11T12:43:53;5.03;;;4.82;;
12038;SDS011;6080;48.818;9.526;2022-07-11T12:46:40;4.40;;;3.97;;
12038;SDS011;6080;48.818;9.526;2022-07-11T12:49:10;5.68;;;5.38;;
12038;SDS011;6080;48.818;9.526;2022-07-11T12:51:40;6.45;;;6.00;;
12038;SDS011;6080;48.818;9.526;2022-07-11T12:54:15;6.60;;;6.30;;
12038;SDS011;6080;48.818;9.526;2022-07-11T12:56:51;5.80;;;5.60;;
12038;SDS011;6080;48.818;9.526;2022-07-11T12:59:20;4.43;;;4.15;;
12038;SDS011;6080;48.818;9.526;2022-07-11T13:01:54;5.35;;;5.15;;
12038;SDS011;6080;48.818;9.526;2022-07-11T13:05:49;6.07;;;5.80;;
12038;SDS011;6080;48.818;9.526;2022-07-11T13:08:25;5.38;;;5.18;;
12038;SDS011;6080;48.818;9.526;2022-07-11T13:11:08;5.38;;;5.00;;
12038;SDS011;6080;48.818;9.526;2022-07-11T13:13:45;6.15;;;5.95;;
12038;SDS011;6080;48.818;9.526;2022-07-11T13:16:14;6.55;;;6.15;;
12038;SDS011;6080;48.818;9.526;2022-07-11T13:18:42;6.40;;;6.10;;
12038;SDS011;6080;48.818;9.526;2022-07-11T13:21:08;6.93;;;6.53;;
12038;SDS011;6080;48.818;9.526;2022-07-11T13:23:34;6.63;;;6.32;;
12038;SDS011;6080;48.818;9.526;2022-07-11T13:26:02;8.65;;;8.10;;
12038;SDS011;6080;48.818;9.526;2022-07-11T13:28:30;6.93;;;6.47;;
12038;SDS011;6080;48.818;9.526;2022-07-11T13:30:56;5.00;;;4.70;;
12038;SDS011;6080;48.818;9.526;2022-07-11T13:33:22;7.72;;;5.93;;
12038;SDS011;6080;48.818;9.526;2022-07-11T13:35:49;4.78;;;4.57;;
12038;SDS011;6080;48.818;9.526;2022-07-11T13:38:16;5.53;;;5.32;;
12038;SDS011;6080;48.818;9.526;2022-07-11T13:40:42;4.95;;;4.55;;
12038;SDS011;6080;48.818;9.526;2022-07-11T13:43:09;5.25;;;4.85;;
12038;SDS011;6080;48.818;9.526;2022-07-11T13:45:35;4.40;;;4.18;;
12038;SDS011;6080;48.818;9.526;2022-07-11T13:48:01;5.15;;;4.75;;
12038;SDS011;6080;48.818;9.526;2022-07-11T13:50:27;5.00;;;4.70;;
12038;SDS011;6080;48.818;9.526;2022-07-11T13:52:53;4.53;;;4.30;;
12038;SDS011;6080;48.818;9.526;2022-07-11T13:55:20;5.60;;;5.10;;
12038;SDS011;6080;48.818;9.526;2022-07-11T13:57:49;4.20;;;4.00;;
12038;SDS011;6080;48.818;9.526;2022-07-11T14:00:17;4.70;;;4.30;;
12038;SDS011;6080;48.818;9.526;2022-07-11T14:02:43;4.35;;;4.15;;
12038;SDS011;6080;48.818;9.526;2022-07-11T14:05:09;7.88;;;7.38;;
12038;SDS011;6080;48.818;9.526;2022-07-11T14:07:35;6.70;;;6.20;;
12038;SDS011;6080;48.818;9.526;2022-07-11T14:10:03;6.82;;;6.53;;
12038;SDS011;6080;48.818;9.526;2022-07-11T14:12:29;6.55;;;6.25;;
12038;SDS011;6080;48.818;9.526;2022-07-11T14:14:56;8.70;;;8.20;;
12038;SDS011;6080;48.818;9.526;2022-07-11T14:17:22;7.45;;;7.05;;
12038;SDS011;6080;48.818;9.526;2022-07-11T14:19:50;7.57;;;7.18;;
12038;SDS011;6080;48.818;9.526;2022-07-11T14:22:17;7.32;;;6.95;;
12038;SDS011;6080;48.818;9.526;2022-07-11T14:24:43;7.18;;;6.75;;
12038;SDS011;6080;48.818;9.526;2022-07-11T14:27:08;6.97;;;6.57;;
12038;SDS011;6080;48.818;9.526;2022-07-11T14:29:35;7.25;;;6.95;;
12038;SDS011;6080;48.818;9.526;2022-07-11T14:32:01;7.35;;;6.93;;
12038;SDS011;6080;48.818;9.526;2022-07-11T14:34:27;7.18;;;6.82;;
12038;SDS011;6080;48.818;9.526;2022-07-11T14:36:54;7.93;;;7.53;;
12038;SDS011;6080;48.818;9.526;2022-07-11T14:39:20;6.55;;;6.07;;
12038;SDS011;6080;48.818;9.526;2022-07-11T14:41:46;5.40;;;5.10;;
12038;SDS011;6080;48.818;9.526;2022-07-11T14:44:12;4.43;;;4.22;;
12038;SDS011;6080;48.818;9.526;2022-07-11T14:46:39;6.28;;;5.97;;
12038;SDS011;6080;48.818;9.526;2022-07-11T14:49:07;7.07;;;6.78;;
12038;SDS011;6080;48.818;9.526;2022-07-11T14:51:34;9.88;;;9.38;;
12038;SDS011;6080;48.818;9.526;2022-07-11T14:54:00;7.45;;;7.10;;
12038;SDS011;6080;48.818;9.526;2022-07-11T14:56:26;6.78;;;6.38;;
12038;SDS011;6080;48.818;9.526;2022-07-11T14:58:52;5.45;;;5.25;;
12038;SDS011;6080;48.818;9.526;2022-07-11T15:01:18;5.38;;;5.10;;
12038;SDS011;6080;48.818;9.526;2022-07-11T15:03:44;4.65;;;4.45;;
12038;SDS011;6080;48.818;9.526;2022-07-11T15:06:11;4.68;;;4.38;;
12038;SDS011;6080;48.818;9.526;2022-07-11T15:08:39;4.68;;;4.47;;
12038;SDS011;6080;48.818;9.526;2022-07-11T15:11:31;4.50;;;4.20;;
12038;SDS011;6080;48.818;9.526;2022-07-11T15:14:16;4.70;;;4.40;;
12038;SDS011;6080;48.818;9.526;2022-07-11T15:16:42;5.85;;;5.55;;
12038;SDS011;6080;48.818;9.526;2022-07-11T15:19:10;6.93;;;6.43;;
12038;SDS011;6080;48.818;9.526;2022-07-11T15:21:37;13.10;;;9.88;;
12038;SDS011;6080;48.818;9.526;2022-07-11T15:24:04;6.78;;;6.15;;
12038;SDS011;6080;48.818;9.526;2022-07-11T15:26:29;6.05;;;5.75;;
12038;SDS011;6080;48.818;9.526;2022-07-11T15:28:55;6.32;;;5.72;;
12038;SDS011;6080;48.818;9.526;2022-07-11T15:31:22;4.45;;;4.22;;
12038;SDS011;6080;48.818;9.526;2022-07-11T15:33:48;6.18;;;5.88;;